Time;durP1;ratioP1;P1;durP2;ratioP2;P2;SDS_P1;SDS_P2;PMS_P1;PMS_P2;Temp;Humidity;BMP_temperature;BMP_pressure;BME280_temperature;BME280_humidity;BME280_pressure;Samples;Min_cycle;Max_cycle;Signal;HPM_P1;HPM_P2
2024/02/01 00:01:23;;;;;;;6.63;2.03;;;;;;;8.08;63.59;101509.72;10347126;28;20093;-64
2024/02/01 00:06:24;;;;;;;5.40;2.13;;;;;;;8.10;63.55;101499.75;10334443;28;20457;-65
2024/02/01 00:11:26;;;;;;;4.40;1.60;;;;;;;8.13;63.42;101494.94;10343233;28;20108;-65
2024/02/01 00:16:27;;;;;;;4.90;2.00;;;;;;;8.16;63.33;101484.97;10340065;28;20104;-65
2024/02/01 00:21:29;;;;;;;3.80;1.80;;;;;;;8.18;63.20;101478.50;10343145;28;20049;-62
2024/02/01 00:26:30;;;;;;;3.30;1.60;;;;;;;8.20;63.29;101468.50;10343736;28;20396;-65
2024/02/01 00:31:32;;;;;;;2.90;1.55;;;;;;;8.23;63.00;101478.09;10342236;28;20125;-65
2024/02/01 00:36:34;;;;;;;4.15;1.75;;;;;;;8.31;63.47;101479.13;10343152;28;20081;-64
2024/02/01 00:41:35;;;;;;;5.22;2.55;;;;;;;8.34;63.45;101465.47;10342291;28;20053;-66
2024/02/01 00:46:37;;;;;;;5.03;1.83;;;;;;;8.39;63.37;101456.16;10339089;28;21053;-66
2024/02/01 00:51:38;;;;;;;4.05;1.55;;;;;;;8.56;62.79;101458.25;10342832;28;20048;-64
2024/02/01 00:56:39;;;;;;;3.25;2.03;;;;;;;8.61;62.67;101450.66;10342855;28;20370;-65
2024/02/01 01:01:41;;;;;;;3.95;1.77;;;;;;;8.67;62.55;101452.78;10338386;28;20188;-66
2024/02/01 01:06:43;;;;;;;2.65;1.60;;;;;;;8.79;62.43;101433.91;10339546;28;20424;-63
2024/02/01 01:11:44;;;;;;;4.32;1.45;;;;;;;8.76;62.57;101426.16;10337730;28;20043;-66
2024/02/01 01:16:45;;;;;;;3.35;1.52;;;;;;;8.75;62.76;101430.66;10344036;28;20042;-65
2024/02/01 01:21:47;;;;;;;3.50;1.83;;;;;;;8.85;62.42;101414.59;10340923;28;20507;-64
2024/02/01 01:26:48;;;;;;;5.30;2.05;;;;;;;8.85;62.33;101407.41;10341776;28;20061;-65
2024/02/01 01:31:50;;;;;;;9.55;1.92;;;;;;;8.98;62.23;101406.28;10339099;28;20053;-65
2024/02/01 01:36:51;;;;;;;3.05;1.80;;;;;;;9.03;62.22;101404.88;10338404;28;20038;-64
2024/02/01 01:41:52;;;;;;;6.18;2.42;;;;;;;9.02;62.16;101411.22;10339312;28;20050;-64
2024/02/01 01:46:55;;;;;;;4.88;1.35;;;;;;;9.07;62.20;101408.13;10335855;28;20046;-65
2024/02/01 01:51:57;;;;;;;4.40;1.38;;;;;;;9.04;62.35;101403.03;10339115;28;20052;-65
2024/02/01 01:56:59;;;;;;;3.35;1.67;;;;;;;9.03;62.34;101396.84;10340918;28;20057;-63
2024/02/01 02:02:01;;;;;;;3.85;1.48;;;;;;;9.02;62.51;101392.44;10341425;28;20487;-65
2024/02/01 02:07:03;;;;;;;3.58;1.50;;;;;;;9.03;62.57;101386.09;10338499;28;20053;-64
2024/02/01 02:12:05;;;;;;;3.80;1.27;;;;;;;9.08;62.68;101388.38;10344064;28;20065;-65
2024/02/01 02:17:06;;;;;;;3.42;1.13;;;;;;;9.04;62.80;101393.16;10336384;28;20043;-65
2024/02/01 02:22:12;;;;;;;4.13;1.60;;;;;;;9.07;62.75;101384.84;10334935;28;20053;-66
2024/02/01 02:27:16;;;;;;;3.50;1.33;;;;;;;9.10;62.54;101381.88;10333874;28;20047;-65
2024/02/01 02:32:18;;;;;;;3.80;1.40;;;;;;;9.16;62.50;101368.88;10337664;28;20042;-64
2024/02/01 02:37:19;;;;;;;3.15;1.23;;;;;;;9.13;62.58;101378.06;10340601;28;20046;-65
2024/02/01 02:42:21;;;;;;;2.17;1.15;;;;;;;9.13;62.64;101370.03;10353377;28;20414;-65
2024/02/01 02:47:22;;;;;;;2.97;1.33;;;;;;;9.16;62.62;101344.75;10342810;28;20042;-65
2024/02/01 02:52:24;;;;;;;2.92;1.80;;;;;;;9.18;62.62;101357.00;10344270;28;20128;-65
2024/02/01 02:57:25;;;;;;;4.30;1.23;;;;;;;9.19;62.54;101349.84;10341996;28;20050;-65
2024/02/01 03:02:27;;;;;;;3.70;1.23;;;;;;;9.09;62.98;101344.47;10342853;28;20440;-65
2024/02/01 03:07:28;;;;;;;4.70;1.60;;;;;;;9.06;63.17;101355.47;10345491;28;20425;-65
2024/02/01 03:12:30;;;;;;;2.83;1.50;;;;;;;8.96;63.79;101351.94;10348531;28;20078;-65
2024/02/01 03:17:34;;;;;;;4.70;1.65;;;;;;;8.92;63.79;101351.38;10341342;28;20081;-65
2024/02/01 03:22:35;;;;;;;4.55;1.40;;;;;;;8.86;64.27;101339.38;10348546;28;20129;-65
2024/02/01 03:27:42;;;;;;;3.22;1.50;;;;;;;8.89;64.39;101340.94;10344927;28;20053;-66
2024/02/01 03:32:45;;;;;;;7.03;1.73;;;;;;;8.90;64.45;101338.09;10346531;28;20038;-66
2024/02/01 03:37:46;;;;;;;5.25;1.85;;;;;;;8.83;65.06;101339.66;10342781;28;20485;-65
2024/02/01 03:42:48;;;;;;;3.20;1.77;;;;;;;8.62;65.85;101342.47;10344421;28;20061;-65
2024/02/01 03:47:49;;;;;;;5.10;2.15;;;;;;;8.39;66.80;101346.31;10343819;28;20527;-65
2024/02/01 03:52:51;;;;;;;4.68;2.30;;;;;;;8.36;66.81;101360.00;10342224;28;20536;-64
2024/02/01 03:57:52;;;;;;;5.07;2.70;;;;;;;8.36;67.54;101358.16;10343465;28;20485;-62
2024/02/01 04:02:56;;;;;;;6.72;3.35;;;;;;;8.16;68.19;101349.22;10343646;28;20054;-67
2024/02/01 04:07:57;;;;;;;7.00;3.15;;;;;;;8.03;69.37;101362.84;10347431;28;20068;-65
2024/02/01 04:12:59;;;;;;;8.43;3.83;;;;;;;8.02;69.53;101360.31;10348390;28;20074;-65
2024/02/01 04:18:03;;;;;;;6.40;3.22;;;;;;;7.98;69.60;101367.75;10339273;28;20056;-65
2024/02/01 04:23:05;;;;;;;11.02;3.90;;;;;;;8.03;69.95;101380.75;10338722;28;20042;-65
2024/02/01 04:28:08;;;;;;;7.25;4.15;;;;;;;8.03;70.18;101386.09;10343339;28;20515;-66
2024/02/01 04:33:11;;;;;;;8.20;3.88;;;;;;;8.04;70.51;101383.28;10343975;28;20050;-65
2024/02/01 04:38:12;;;;;;;13.45;4.60;;;;;;;8.05;70.55;101384.13;10341734;28;20046;-64
2024/02/01 04:43:14;;;;;;;7.57;4.18;;;;;;;8.02;71.21;101385.25;10341650;28;20237;-65
2024/02/01 04:48:16;;;;;;;8.63;3.58;;;;;;;7.99;71.60;101380.16;10342272;28;20059;-61
2024/02/01 04:53:18;;;;;;;12.77;4.75;;;;;;;7.98;71.95;101374.91;10337412;28;20464;-63
2024/02/01 04:58:20;;;;;;;12.90;4.30;;;;;;;8.02;71.56;101384.41;10333563;28;20066;-62
2024/02/01 05:03:22;;;;;;;9.18;4.53;;;;;;;7.91;72.40;101380.81;10342028;28;20054;-62
2024/02/01 05:08:30;;;;;;;14.20;4.80;;;;;;;7.93;72.99;101381.53;10342047;28;20050;-62
2024/02/01 05:13:32;;;;;;;9.73;5.05;;;;;;;7.83;73.59;101369.94;10339554;28;20123;-62
2024/02/01 05:18:33;;;;;;;13.50;6.03;;;;;;;7.83;73.92;101361.06;10340391;28;20061;-62
2024/02/01 05:23:35;;;;;;;11.77;5.63;;;;;;;7.83;74.39;101369.94;10334616;28;20466;-62
2024/02/01 05:28:36;;;;;;;14.45;7.15;;;;;;;7.85;73.96;101377.84;10341433;28;20046;-62
2024/02/01 05:33:39;;;;;;;15.93;6.57;;;;;;;7.90;74.71;101373.78;10343471;28;20085;-62
2024/02/01 05:38:41;;;;;;;18.02;6.35;;;;;;;7.86;74.51;101361.66;10342010;28;20473;-62
2024/02/01 05:43:43;;;;;;;17.60;5.82;;;;;;;7.87;75.04;101351.78;10345011;28;20046;-62
2024/02/01 05:48:44;;;;;;;16.67;7.25;;;;;;;7.83;75.26;101363.72;10341799;28;20031;-62
2024/02/01 05:53:48;;;;;;;13.55;6.97;;;;;;;7.77;75.30;101364.28;10339637;28;20046;-62
2024/02/01 05:58:49;;;;;;;16.58;7.25;;;;;;;7.80;75.44;101369.34;10338265;28;20048;-65
2024/02/01 06:03:50;;;;;;;13.82;6.95;;;;;;;7.84;75.51;101363.59;10340512;28;20045;-65
2024/02/01 06:08:52;;;;;;;17.45;7.65;;;;;;;7.89;76.17;101361.38;10341178;28;20046;-66
2024/02/01 06:13:53;;;;;;;16.27;7.30;;;;;;;7.96;75.79;101372.41;10339108;28;20108;-64
2024/02/01 06:18:55;;;;;;;17.58;7.60;;;;;;;8.01;75.51;101382.69;10346702;28;20609;-65
2024/02/01 06:23:58;;;;;;;17.58;8.32;;;;;;;8.01;76.06;101383.53;10349299;28;20071;-65
2024/02/01 06:29:07;;;;;;;19.92;8.98;;;;;;;8.09;75.64;101386.38;10346688;28;20112;-65
2024/02/01 06:34:11;;;;;;;21.13;8.93;;;;;;;8.10;76.30;101389.94;10349970;28;20057;-65
2024/02/01 06:44:21;;;;;;;17.40;8.63;;;;;;;8.08;76.16;101391.91;10347798;28;20046;-65
2024/02/01 06:54:50;;;;;;;18.40;9.50;;;;;;;8.11;76.51;101384.44;10350360;28;20569;-67
2024/02/01 07:05:21;;;;;;;18.88;8.23;;;;;;;8.28;76.14;101382.13;10345621;28;20128;-66
2024/02/01 07:10:32;;;;;;;20.60;9.25;;;;;;;8.30;76.02;101383.66;10358645;28;20188;-66
2024/02/01 07:15:35;;;;;;;15.63;7.78;;;;;;;8.31;76.04;101400.59;10344119;28;20046;-65
2024/02/01 07:20:46;;;;;;;17.50;8.70;;;;;;;8.34;76.41;101409.19;10347125;28;20048;-65
2024/02/01 07:58:00;;;;;;;14.00;7.63;;;;;;;8.68;76.32;101475.06;10348313;28;20042;-66
2024/02/01 08:08:26;;;;;;;15.40;7.65;;;;;;;8.88;76.22;101484.88;10338145;28;20039;-67
2024/02/01 08:13:28;;;;;;;16.30;6.65;;;;;;;8.91;76.49;101489.97;10349463;28;20111;-66
2024/02/01 08:18:37;;;;;;;13.60;7.45;;;;;;;9.03;76.24;101505.97;10352571;28;20093;-67
2024/02/01 08:23:39;;;;;;;17.05;6.72;;;;;;;9.11;76.18;101514.16;10341735;28;20180;-66
2024/02/01 08:28:42;;;;;;;15.35;7.15;;;;;;;9.23;76.03;101525.63;10340266;28;20058;-67
2024/02/01 08:33:44;;;;;;;15.77;6.85;;;;;;;9.31;76.11;101526.63;10345197;28;20154;-67
2024/02/01 08:38:46;;;;;;;10.70;6.13;;;;;;;9.50;75.71;101522.28;10343543;28;20519;-67
2024/02/01 08:43:47;;;;;;;13.45;6.30;;;;;;;9.68;75.31;101523.28;10349366;28;20050;-67
2024/02/01 08:48:49;;;;;;;11.80;6.10;;;;;;;9.86;75.00;101523.41;10340563;28;20129;-67
2024/02/01 08:53:52;;;;;;;8.93;5.38;;;;;;;9.97;75.21;101534.97;10344056;28;20065;-67
2024/02/01 08:58:54;;;;;;;8.98;5.65;;;;;;;9.95;75.36;101543.16;10338628;28;20069;-67
2024/02/01 09:03:55;;;;;;;10.25;6.15;;;;;;;9.98;75.42;101542.91;10340053;28;20106;-67
2024/02/01 09:08:56;;;;;;;8.70;5.05;;;;;;;10.08;75.03;101545.59;10341272;28;20038;-67
2024/02/01 09:14:00;;;;;;;10.82;5.22;;;;;;;10.05;75.64;101553.91;10342224;28;20069;-67
2024/02/01 09:19:02;;;;;;;10.18;4.72;;;;;;;10.10;75.42;101551.66;10338592;28;20042;-67
2024/02/01 09:24:04;;;;;;;8.45;4.63;;;;;;;10.18;75.06;101545.56;10338780;28;20054;-67
2024/02/01 09:29:11;;;;;;;8.40;4.50;;;;;;;10.15;75.13;101553.91;10341728;28;21465;-66
2024/02/01 09:34:16;;;;;;;7.10;4.23;;;;;;;10.15;74.94;101560.16;10337583;28;20497;-67
2024/02/01 09:39:18;;;;;;;10.10;5.45;;;;;;;10.30;75.21;101553.34;10337686;28;20042;-67
2024/02/01 09:44:20;;;;;;;8.07;3.85;;;;;;;10.41;74.88;101562.25;10338394;28;20086;-67
2024/02/01 09:49:22;;;;;;;8.68;3.92;;;;;;;10.32;75.00;101566.66;10338312;28;20068;-67
2024/02/01 09:54:32;;;;;;;8.25;4.35;;;;;;;10.54;74.96;101567.31;10343143;28;20555;-68
2024/02/01 09:59:37;;;;;;;10.07;4.38;;;;;;;10.65;74.52;101594.88;10340286;28;20511;-68
2024/02/01 10:04:40;;;;;;;8.90;4.50;;;;;;;10.62;74.86;101592.47;10341773;28;20049;-68
2024/02/01 10:09:42;;;;;;;7.28;3.65;;;;;;;10.57;75.10;101607.38;10356187;28;20885;-68
2024/02/01 10:14:44;;;;;;;6.28;4.05;;;;;;;10.69;74.96;101603.50;10343540;28;20046;-68
2024/02/01 10:19:49;;;;;;;8.23;4.70;;;;;;;10.79;74.59;101598.94;10344475;28;20054;-69
2024/02/01 10:24:56;;;;;;;6.03;5.22;;;;;;;10.74;74.79;101598.50;10340777;28;20049;-68
2024/02/01 10:29:58;;;;;;;8.17;4.43;;;;;;;10.84;74.85;101595.78;10336633;28;20046;-66
2024/02/01 10:35:01;;;;;;;7.22;3.95;;;;;;;11.00;74.33;101597.84;10338295;28;20042;-68
2024/02/01 10:40:07;;;;;;;5.43;4.00;;;;;;;11.12;74.18;101591.31;10358530;28;20128;-67
2024/02/01 10:45:10;;;;;;;7.45;4.35;;;;;;;11.15;73.98;101596.38;10362443;28;20120;-68
2024/02/01 10:50:14;;;;;;;7.15;3.55;;;;;;;11.62;73.25;101580.09;10360705;28;20054;-68
2024/02/01 10:55:17;;;;;;;5.03;3.50;;;;;;;11.90;72.69;101596.22;10374725;28;20056;-70
2024/02/01 11:00:20;;;;;;;3.20;2.22;;;;;;;11.89;72.53;101589.16;10349835;28;20042;-70
2024/02/01 11:05:29;;;;;;;5.65;2.03;;;;;;;11.46;68.65;101607.69;10346442;28;20046;-72
2024/02/01 11:10:31;;;;;;;6.00;1.83;;;;;;;11.40;67.31;101618.22;10346138;28;20133;-69
2024/02/01 11:15:33;;;;;;;3.92;2.28;;;;;;;11.34;65.45;101600.00;10339692;28;20046;-68
2024/02/01 11:20:35;;;;;;;3.88;1.77;;;;;;;11.37;64.41;101619.34;10346973;28;20462;-72
2024/02/01 11:25:38;;;;;;;3.22;1.15;;;;;;;11.58;63.87;101624.50;10340690;28;20054;-70
2024/02/01 11:30:50;;;;;;;3.17;1.35;;;;;;;11.78;62.14;101637.84;10347397;28;20042;-73
2024/02/01 11:36:01;;;;;;;4.43;1.55;;;;;;;11.56;61.45;101637.25;10348013;28;20049;-73
2024/02/01 11:41:03;;;;;;;1.98;1.52;;;;;;;11.45;60.96;101648.22;10343757;28;20509;-72
2024/02/01 11:46:06;;;;;;;5.50;1.67;;;;;;;11.42;60.82;101651.22;10336651;28;20050;-71
2024/02/01 11:51:08;;;;;;;5.15;1.75;;;;;;;11.46;60.13;101655.31;10341440;28;20058;-71
2024/02/01 11:56:10;;;;;;;2.65;0.82;;;;;;;11.67;58.29;101637.06;10342512;28;20100;-71
2024/02/01 12:01:11;;;;;;;4.28;1.08;;;;;;;12.00;58.20;101644.66;10342728;28;20081;-71
2024/02/01 12:06:19;;;;;;;3.35;1.27;;;;;;;12.25;57.42;101634.97;10331256;28;20504;-71
2024/02/01 12:11:24;;;;;;;3.40;0.90;;;;;;;12.30;58.00;101646.09;10344661;28;20536;-72
2024/02/01 12:16:26;;;;;;;2.78;0.98;;;;;;;11.92;57.02;101666.97;10329576;28;20073;-72
2024/02/01 12:21:28;;;;;;;1.38;0.80;;;;;;;11.58;57.16;101677.50;10345973;28;20066;-72
2024/02/01 12:26:29;;;;;;;1.50;0.68;;;;;;;11.24;56.80;101661.94;10341561;28;20061;-70
2024/02/01 12:31:31;;;;;;;2.28;0.70;;;;;;;11.29;56.96;101660.50;10341583;28;20052;-71
2024/02/01 12:36:33;;;;;;;5.43;0.52;;;;;;;11.49;57.29;101666.66;10334234;28;20065;-71
2024/02/01 12:41:34;;;;;;;6.15;0.60;;;;;;;11.31;57.07;101661.22;10342805;28;20038;-68
2024/02/01 12:46:36;;;;;;;1.55;0.40;;;;;;;11.21;55.76;101652.31;10348049;28;20043;-69
2024/02/01 12:51:39;;;;;;;1.52;0.52;;;;;;;11.17;54.78;101642.00;10347136;28;20050;-71
2024/02/01 12:56:40;;;;;;;1.73;0.50;;;;;;;11.22;54.38;101643.25;10342381;28;20050;-70
2024/02/01 13:01:42;;;;;;;5.80;0.50;;;;;;;11.25;54.70;101640.25;10341431;28;20073;-68
2024/02/01 13:06:43;;;;;;;2.50;0.40;;;;;;;11.27;53.85;101642.78;10337901;28;20508;-68
2024/02/01 13:11:45;;;;;;;8.50;0.47;;;;;;;11.39;54.17;101646.13;10345810;28;20056;-68
2024/02/01 13:16:47;;;;;;;3.00;0.30;;;;;;;11.39;54.21;101640.75;10338367;28;20533;-64
2024/02/01 13:21:50;;;;;;;3.13;1.05;;;;;;;11.43;51.97;101642.16;10377880;28;20061;-67
2024/02/01 13:26:52;;;;;;;1.80;0.30;;;;;;;11.40;50.69;101651.38;10384736;28;20061;-67
2024/02/01 13:31:55;;;;;;;1.40;0.20;;;;;;;11.22;50.15;101648.63;10345519;28;20053;-69
2024/02/01 13:36:57;;;;;;;4.90;0.68;;;;;;;11.26;50.33;101652.72;10339827;28;20039;-68
2024/02/01 13:41:58;;;;;;;4.07;0.95;;;;;;;11.25;49.97;101655.56;10343956;28;20508;-68
2024/02/01 13:47:06;;;;;;;3.20;0.30;;;;;;;11.22;50.24;101654.00;10343026;28;20096;-67
2024/02/01 13:52:08;;;;;;;;;;;;;;;11.17;50.92;101660.84;10345987;28;20060;-68
2024/02/01 13:57:09;;;;;;;3.17;0.60;;;;;;;11.03;50.49;101662.16;10345132;28;19921;-67
2024/02/01 14:02:13;;;;;;;6.40;1.63;;;;;;;11.04;50.72;101658.47;10343271;28;20041;-68
2024/02/01 14:07:15;;;;;;;5.28;0.90;;;;;;;11.00;50.57;101670.50;10347582;28;20048;-68
2024/02/01 14:12:17;;;;;;;6.47;0.57;;;;;;;11.01;50.44;101664.13;10341092;28;20108;-67
2024/02/01 14:17:19;;;;;;;5.88;0.47;;;;;;;10.96;50.31;101667.28;10340501;28;20054;-68
2024/02/01 14:22:20;;;;;;;2.60;0.50;;;;;;;10.99;50.85;101663.44;10340365;28;20108;-67
2024/02/01 14:27:23;;;;;;;8.93;1.67;;;;;;;11.07;50.89;101687.78;10332036;28;20064;-67
2024/02/01 14:32:24;;;;;;;8.15;0.73;;;;;;;10.99;50.69;101693.03;10337940;28;20046;-66
2024/02/01 14:37:27;;;;;;;4.82;0.88;;;;;;;11.06;51.32;101700.38;10339345;28;20045;-65
2024/02/01 14:42:29;;;;;;;5.78;0.93;;;;;;;10.94;51.43;101711.44;10344348;28;20398;-65
2024/02/01 14:47:30;;;;;;;5.95;0.70;;;;;;;11.01;51.58;101720.66;10346794;28;20065;-65
2024/02/01 14:52:32;;;;;;;11.77;1.35;;;;;;;11.09;51.99;101728.84;10350336;28;20552;-64
2024/02/01 14:57:34;;;;;;;5.15;0.73;;;;;;;10.78;50.87;101738.94;10345558;28;20218;-67
2024/02/01 15:02:36;;;;;;;4.55;0.52;;;;;;;10.79;51.31;101746.88;10344787;28;20041;-69
2024/02/01 15:07:37;;;;;;;7.43;1.10;;;;;;;10.86;51.83;101753.38;10345080;28;20505;-69
2024/02/01 15:12:38;;;;;;;6.47;0.80;;;;;;;10.60;51.12;101765.69;10353961;28;20061;-69
2024/02/01 15:17:41;;;;;;;8.43;0.70;;;;;;;10.56;51.40;101773.19;10350435;28;20610;-69
2024/02/01 15:22:43;;;;;;;8.57;0.93;;;;;;;10.51;51.79;101770.94;10347091;28;20054;-69
2024/02/01 15:27:44;;;;;;;5.03;0.50;;;;;;;10.55;51.72;101773.34;10344184;28;20056;-68
2024/02/01 15:32:46;;;;;;;10.07;0.70;;;;;;;10.45;52.24;101781.41;10345328;28;20492;-69
2024/02/01 15:37:47;;;;;;;15.95;1.02;;;;;;;10.36;52.39;101791.13;10341619;28;20571;-68
2024/02/01 15:42:49;;;;;;;6.20;1.23;;;;;;;10.20;52.41;101786.28;10346013;28;20040;-68
2024/02/01 15:47:50;;;;;;;9.45;1.05;;;;;;;10.11;52.77;101790.66;10347987;28;20046;-68
2024/02/01 15:52:54;;;;;;;10.85;0.85;;;;;;;10.00;52.67;101798.81;10343535;28;20054;-69
2024/02/01 15:57:59;;;;;;;9.75;0.50;;;;;;;9.91;52.66;101804.97;10349028;28;20432;-69
2024/02/01 16:03:01;;;;;;;5.30;0.90;;;;;;;9.82;52.64;101805.81;10349480;28;20085;-68
2024/02/01 16:08:03;;;;;;;8.57;0.77;;;;;;;9.66;52.87;101800.94;10344146;28;20389;-69
2024/02/01 16:13:04;;;;;;;6.35;1.02;;;;;;;9.53;53.33;101818.09;10330805;28;20046;-68
2024/02/01 16:18:24;;;;;;;7.80;0.95;;;;;;;9.48;53.08;101835.59;10345723;28;20050;-71
2024/02/01 16:23:29;;;;;;;8.82;1.02;;;;;;;9.42;53.10;101841.47;10344085;28;20108;-67
2024/02/01 16:28:39;;;;;;;5.38;1.60;;;;;;;9.23;53.43;101823.44;10343924;28;20046;-69
2024/02/01 16:33:45;;;;;;;5.88;1.63;;;;;;;9.17;53.50;101835.53;10342711;28;20043;-69
2024/02/01 16:38:46;;;;;;;14.00;1.05;;;;;;;9.06;53.74;101832.91;10343227;28;20049;-69
2024/02/01 16:43:49;;;;;;;8.85;1.73;;;;;;;8.90;54.26;101836.03;10346533;28;20056;-69
2024/02/01 16:48:51;;;;;;;8.23;2.33;;;;;;;8.83;54.04;101851.78;10340219;28;20153;-69
2024/02/01 16:53:53;;;;;;;11.52;0.90;;;;;;;8.70;54.26;101853.75;10341359;28;20137;-69
2024/02/01 16:58:54;;;;;;;9.27;0.95;;;;;;;8.68;54.41;101853.03;10344292;28;20050;-69
2024/02/01 17:03:58;;;;;;;8.93;1.00;;;;;;;8.62;54.09;101867.78;10344933;28;20469;-69
2024/02/01 17:09:00;;;;;;;4.45;0.88;;;;;;;8.57;54.30;101869.16;10339784;28;20046;-68
2024/02/01 17:14:24;;;;;;;6.63;1.10;;;;;;;8.55;54.38;101869.28;10342510;28;20104;-69
2024/02/01 17:19:29;;;;;;;4.07;0.75;;;;;;;8.47;54.67;101879.75;10336835;28;20850;-69
2024/02/01 17:24:31;;;;;;;7.30;1.45;;;;;;;8.47;54.55;101891.34;10342839;28;20054;-69
2024/02/01 17:29:34;;;;;;;10.57;1.30;;;;;;;8.48;54.51;101895.72;10343734;28;20050;-69
2024/02/01 17:34:36;;;;;;;7.05;0.80;;;;;;;8.43;55.16;101900.63;10342873;28;20049;-69
2024/02/01 17:39:47;;;;;;;13.43;1.42;;;;;;;8.38;55.01;101891.22;10343726;28;20053;-67
2024/02/01 17:44:49;;;;;;;10.05;1.73;;;;;;;8.34;54.75;101902.16;10337570;28;20046;-67
2024/02/01 17:49:53;;;;;;;6.80;1.42;;;;;;;8.26;55.35;101909.13;10343246;28;20050;-67
2024/02/01 17:54:54;;;;;;;5.50;1.50;;;;;;;8.18;55.46;101904.38;10338875;28;20932;-68
2024/02/01 17:59:56;;;;;;;15.25;2.55;;;;;;;8.18;55.09;101900.84;10343647;28;20054;-70
2024/02/01 18:04:59;;;;;;;12.40;2.22;;;;;;;8.07;55.56;101913.22;10336822;28;20080;-70
2024/02/01 18:10:05;;;;;;;12.73;2.60;;;;;;;8.00;55.75;101909.34;10341516;28;20048;-70
2024/02/01 18:15:19;;;;;;;11.73;2.90;;;;;;;7.68;56.45;101923.44;10334491;28;20084;-70
2024/02/01 18:20:22;;;;;;;13.95;3.42;;;;;;;7.51;56.95;101934.56;10339135;28;20066;-69
2024/02/01 18:25:32;;;;;;;18.25;3.85;;;;;;;7.35;56.80;101932.19;10373198;28;20060;-70
2024/02/01 18:30:43;;;;;;;10.00;3.13;;;;;;;7.19;56.79;101929.81;10368893;28;20046;-71
2024/02/01 18:35:52;;;;;;;11.05;2.95;;;;;;;7.27;57.15;101914.06;10350985;28;20054;-71
2024/02/01 18:40:54;;;;;;;10.57;2.25;;;;;;;7.41;57.54;101918.34;10352978;28;20057;-69
2024/02/01 18:45:59;;;;;;;16.95;3.53;;;;;;;7.57;57.25;101906.50;10348565;28;20070;-71
2024/02/01 18:51:10;;;;;;;11.85;2.72;;;;;;;7.62;57.41;101917.66;10385073;28;20066;-69
2024/02/01 18:56:24;;;;;;;12.48;2.53;;;;;;;7.70;57.45;101928.63;10375078;28;20046;-74
2024/02/01 19:01:29;;;;;;;7.18;2.45;;;;;;;7.75;57.10;101946.06;10364063;28;20037;-73
2024/02/01 19:06:34;;;;;;;11.60;2.95;;;;;;;7.78;57.30;101934.28;10345006;28;20405;-69
2024/02/01 19:11:43;;;;;;;9.00;2.50;;;;;;;7.78;57.59;101926.25;10341940;28;20049;-67
2024/02/01 19:16:45;;;;;;;11.23;3.00;;;;;;;7.79;57.94;101927.94;10340962;28;20714;-70
2024/02/01 19:21:47;;;;;;;9.63;2.80;;;;;;;7.88;57.46;101929.91;10342653;28;20640;-72
2024/02/01 19:26:49;;;;;;;16.02;3.00;;;;;;;8.03;57.32;101951.94;10344721;28;20050;-70
2024/02/01 19:31:50;;;;;;;12.75;3.35;;;;;;;7.96;57.21;101953.41;10349739;28;20050;-72
2024/02/01 19:36:54;;;;;;;9.95;3.40;;;;;;;7.80;57.44;101964.47;10348283;28;20057;-70
2024/02/01 19:41:56;;;;;;;13.20;3.05;;;;;;;7.71;57.58;101976.72;10346454;28;20057;-72
2024/02/01 19:46:58;;;;;;;13.48;3.60;;;;;;;7.63;57.59;101987.16;10347661;28;20042;-71
2024/02/01 19:52:00;;;;;;;13.50;3.28;;;;;;;7.52;58.05;101979.06;10347388;28;20052;-72
2024/02/01 19:57:02;;;;;;;11.95;3.40;;;;;;;7.47;57.53;101962.53;10343290;28;20100;-71
2024/02/01 20:02:05;;;;;;;13.50;3.05;;;;;;;7.37;58.17;101957.00;10391993;28;20113;-69
2024/02/01 20:07:07;;;;;;;16.35;3.13;;;;;;;7.31;58.05;101957.47;10365325;28;20140;-68
2024/02/01 20:12:14;;;;;;;11.45;3.05;;;;;;;7.19;58.39;101959.25;10366949;28;20121;-68
2024/02/01 20:17:19;;;;;;;21.15;3.45;;;;;;;7.07;58.02;101965.47;10368497;28;20069;-68
2024/02/01 20:22:21;;;;;;;12.43;4.50;;;;;;;6.90;58.36;101961.38;10383131;28;20033;-68
2024/02/01 20:27:35;;;;;;;13.65;6.00;;;;;;;6.70;59.21;101968.19;10412782;22;20058;-84
2024/02/01 20:32:39;;;;;;;14.10;5.18;;;;;;;6.56;59.29;101950.47;10420696;28;20052;-85
2024/02/01 20:37:48;;;;;;;15.07;4.88;;;;;;;6.42;59.33;101975.50;10397776;28;20061;-84
2024/02/01 20:42:52;;;;;;;15.95;6.10;;;;;;;6.30;59.92;101987.03;10395238;28;20053;-84
2024/02/01 20:47:56;;;;;;;19.20;6.03;;;;;;;6.15;59.63;101975.63;10406797;28;20075;-86
2024/02/01 20:52:58;;;;;;;14.75;5.90;;;;;;;5.99;60.45;101988.31;10364994;28;20046;-86
2024/02/01 20:58:48;;;;;;;11.73;4.97;;;;;;;5.83;59.99;101976.00;10338033;28;20038;-86
2024/02/01 21:03:52;;;;;;;16.50;4.57;;;;;;;5.70;60.53;101983.13;10374272;28;20041;-86
2024/02/01 21:08:54;;;;;;;15.90;4.63;;;;;;;5.64;60.59;101989.72;10389691;28;20061;-86
2024/02/01 21:13:59;;;;;;;11.25;3.88;;;;;;;5.56;60.79;101992.91;10388192;28;20081;-86
2024/02/01 21:19:02;;;;;;;13.05;3.33;;;;;;;5.50;61.38;102000.47;10385667;28;20041;-86
2024/02/01 21:24:04;;;;;;;19.55;3.85;;;;;;;5.48;61.84;101997.06;10388444;28;20050;-86
2024/02/01 21:29:23;;;;;;;24.42;5.47;;;;;;;5.36;61.53;102004.91;10365740;28;20074;-87
2024/02/01 21:34:38;;;;;;;12.38;3.95;;;;;;;5.32;61.40;102010.53;10354550;28;20508;-87
2024/02/01 21:39:48;;;;;;;21.25;6.55;;;;;;;5.29;61.37;102021.41;10352629;28;20491;-87
2024/02/01 21:44:51;;;;;;;24.58;6.93;;;;;;;5.21;61.68;102026.38;10372255;28;20080;-87
2024/02/01 21:49:52;;;;;;;21.17;6.20;;;;;;;5.21;62.41;102015.72;10382711;28;20049;-87
2024/02/01 21:54:54;;;;;;;27.10;5.93;;;;;;;5.16;61.89;102013.34;10390357;28;20096;-88
2024/02/01 21:59:57;;;;;;;19.45;5.13;;;;;;;5.16;62.17;102003.53;10389819;28;20045;-89
2024/02/01 22:04:59;;;;;;;19.45;5.20;;;;;;;5.21;62.15;102007.72;10391760;28;20076;-89
2024/02/01 22:10:02;;;;;;;26.52;5.97;;;;;;;5.20;62.75;102004.19;10378729;28;20038;-88
2024/02/01 22:15:04;;;;;;;18.02;5.70;;;;;;;5.14;62.77;102017.94;10374835;28;20038;-88
2024/02/01 22:20:09;;;;;;;20.92;4.43;;;;;;;5.09;62.52;102022.69;10363977;28;20042;-88
2024/02/01 22:25:11;;;;;;;16.38;5.45;;;;;;;5.14;63.05;102021.44;10384385;28;20097;-88
2024/02/01 22:30:13;;;;;;;23.95;7.28;;;;;;;5.16;62.73;102029.34;10378156;28;20050;-88
2024/02/01 22:35:15;;;;;;;15.73;7.00;;;;;;;5.14;62.48;102034.78;10372828;28;20401;-88
2024/02/01 22:40:18;;;;;;;16.73;6.50;;;;;;;5.11;62.92;102040.28;10357256;28;20038;-88
2024/02/01 22:45:20;;;;;;;16.70;4.90;;;;;;;5.06;63.18;102041.56;10371802;28;20053;-88
2024/02/01 22:50:21;;;;;;;16.02;5.70;;;;;;;5.21;63.17;102039.69;10373550;28;20054;-88
2024/02/01 22:55:27;;;;;;;20.50;6.22;;;;;;;5.28;62.92;102025.03;10372270;28;20046;-88
2024/02/01 23:00:30;;;;;;;22.60;6.63;;;;;;;5.30;63.60;102025.78;10379271;28;20046;-88
2024/02/01 23:05:32;;;;;;;22.65;8.40;;;;;;;5.20;63.89;102041.53;10378609;28;20429;-87
2024/02/01 23:10:34;;;;;;;20.90;7.15;;;;;;;5.13;63.20;102022.41;10386128;28;20104;-88
2024/02/01 23:15:35;;;;;;;21.30;7.90;;;;;;;5.03;63.89;102015.94;10386994;28;20073;-88
2024/02/01 23:20:39;;;;;;;18.48;7.40;;;;;;;4.91;64.24;102016.72;10379674;28;20114;-88
2024/02/01 23:25:41;;;;;;;15.48;5.82;;;;;;;4.95;63.88;102012.91;10371118;28;20044;-87
2024/02/01 23:30:43;;;;;;;14.13;5.13;;;;;;;5.01;64.10;102004.53;10375988;28;20042;-86
2024/02/01 23:35:45;;;;;;;13.05;5.65;;;;;;;4.94;64.41;101972.09;10372800;28;20047;-87
2024/02/01 23:40:47;;;;;;;14.98;2.97;;;;;;;4.92;64.46;101959.84;10365455;28;20046;-87
2024/02/01 23:45:49;;;;;;;14.70;3.58;;;;;;;4.92;64.22;101947.38;10375010;28;20519;-87
2024/02/01 23:50:52;;;;;;;9.10;2.92;;;;;;;4.95;64.39;101941.81;10368187;28;20034;-87
2024/02/01 23:55:53;;;;;;;11.60;2.00;;;;;;;5.05;64.18;101936.75;10360211;28;20042;-87
